Time;durP1;ratioP1;P1;durP2;ratioP2;P2;SDS_P1;SDS_P2;PMS_P1;PMS_P2;Temp;Humidity;BMP_temperature;BMP_pressure;BME280_temperature;BME280_humidity;BME280_pressure;Samples;Min_cycle;Max_cycle;Signal;HPM_P1;HPM_P2
2024/01/21 00:01:29;;;;;;;18.17;14.40;;;-3.10;71.70;;;;;;6233460;28;20855;-77
2024/01/21 00:04:32;;;;;;;21.07;13.17;;;-3.20;72.00;;;;;;6233326;28;20243;-78
2024/01/21 00:07:38;;;;;;;18.03;14.10;;;-3.20;72.00;;;;;;6225928;28;20379;-79
2024/01/21 00:10:42;;;;;;;17.53;13.57;;;-3.30;72.30;;;;;;6232985;28;20230;-80
2024/01/21 00:13:45;;;;;;;18.90;13.60;;;-3.20;72.10;;;;;;6239076;28;20895;-79
2024/01/21 00:16:48;;;;;;;18.67;14.10;;;-3.20;72.10;;;;;;6216934;28;20298;-79
2024/01/21 00:19:51;;;;;;;18.10;13.90;;;-3.40;71.80;;;;;;6229289;28;20930;-80
2024/01/21 00:22:56;;;;;;;19.70;14.03;;;-3.50;72.20;;;;;;6264914;28;20230;-78
2024/01/21 00:26:00;;;;;;;17.87;14.10;;;-3.60;72.10;;;;;;6256002;28;20887;-77
2024/01/21 00:29:03;;;;;;;18.13;13.73;;;-3.60;72.20;;;;;;6253806;28;20234;-77
2024/01/21 00:32:06;;;;;;;19.73;14.57;;;-3.60;72.20;;;;;;6249754;28;20243;-76
2024/01/21 00:35:10;;;;;;;19.80;14.37;;;-3.70;72.20;;;;;;6242872;28;20245;-80
2024/01/21 00:38:14;;;;;;;20.63;14.37;;;-3.60;72.10;;;;;;6265169;28;20275;-79
2024/01/21 00:41:18;;;;;;;18.00;14.07;;;-3.80;72.00;;;;;;6265963;28;20242;-78
2024/01/21 00:44:21;;;;;;;17.40;13.30;;;-3.80;72.00;;;;;;6265631;28;20248;-78
2024/01/21 00:47:24;;;;;;;19.40;14.13;;;-3.80;71.90;;;;;;6264461;28;20323;-80
2024/01/21 00:50:27;;;;;;;16.80;14.30;;;-3.80;71.90;;;;;;6275289;28;20249;-75
2024/01/21 00:53:32;;;;;;;18.60;14.57;;;-3.80;71.60;;;;;;6275196;28;20738;-80
2024/01/21 00:56:35;;;;;;;19.20;13.80;;;-3.80;71.60;;;;;;6253403;28;20308;-79
2024/01/21 00:59:38;;;;;;;16.43;13.27;;;-3.80;71.40;;;;;;6253298;28;20235;-78
2024/01/21 01:02:41;;;;;;;19.70;13.07;;;-3.80;71.10;;;;;;6248113;28;20310;-79
2024/01/21 01:05:45;;;;;;;17.03;13.50;;;-3.80;71.10;;;;;;6261024;28;20242;-77
2024/01/21 01:08:49;;;;;;;18.40;14.17;;;-3.80;71.10;;;;;;6261264;28;20253;-79
2024/01/21 01:11:52;;;;;;;20.03;13.80;;;-3.80;71.30;;;;;;6261250;28;20917;-79
2024/01/21 01:14:55;;;;;;;19.10;13.80;;;-3.80;71.30;;;;;;6266934;28;20302;-79
2024/01/21 01:17:58;;;;;;;20.57;13.37;;;-3.80;71.20;;;;;;6260994;28;20234;-79
2024/01/21 01:21:02;;;;;;;16.67;12.17;;;-3.80;71.10;;;;;;6263084;28;20241;-79
2024/01/21 01:24:07;;;;;;;13.10;11.77;;;-4.00;71.30;;;;;;6263093;28;20249;-79
2024/01/21 01:27:10;;;;;;;13.77;12.30;;;-3.90;70.90;;;;;;6249464;28;20230;-80
2024/01/21 01:30:14;;;;;;;16.20;12.47;;;-4.00;70.90;;;;;;6242850;28;20241;-77
2024/01/21 01:33:17;;;;;;;14.13;12.43;;;-4.10;71.10;;;;;;6259626;28;20855;-78
2024/01/21 01:36:21;;;;;;;16.03;12.17;;;-4.10;71.10;;;;;;6265487;28;20243;-79
2024/01/21 01:39:25;;;;;;;15.63;12.07;;;-4.00;71.00;;;;;;6262159;28;20253;-78
2024/01/21 01:42:28;;;;;;;15.47;12.13;;;-4.00;70.60;;;;;;6268232;28;20234;-77
2024/01/21 01:45:32;;;;;;;14.30;12.77;;;-4.00;70.40;;;;;;6261194;28;20403;-76
2024/01/21 01:48:35;;;;;;;14.60;12.10;;;-4.00;70.10;;;;;;6258573;28;20241;-80
2024/01/21 01:51:39;;;;;;;14.97;11.53;;;-3.90;69.70;;;;;;6265021;28;20234;-78
2024/01/21 01:54:46;;;;;;;14.77;11.47;;;-4.00;69.80;;;;;;6260817;28;20319;-77
2024/01/21 01:57:49;;;;;;;12.83;11.53;;;-4.00;69.80;;;;;;6269317;28;20233;-80
2024/01/21 02:00:54;;;;;;;14.00;11.53;;;-4.00;69.40;;;;;;6255290;28;20238;-80
2024/01/21 02:03:57;;;;;;;13.70;11.70;;;-4.00;69.30;;;;;;6266912;28;20317;-81
2024/01/21 02:07:01;;;;;;;14.43;12.10;;;-4.00;69.20;;;;;;6265541;28;20245;-78
2024/01/21 02:10:07;;;;;;;14.70;12.50;;;-4.00;69.20;;;;;;6247139;28;20230;-80
2024/01/21 02:13:11;;;;;;;13.13;11.83;;;-4.00;69.20;;;;;;6267713;28;20309;-80
2024/01/21 02:16:14;;;;;;;14.73;11.60;;;-4.00;69.10;;;;;;6256674;28;20311;-79
2024/01/21 02:19:26;;;;;;;14.40;12.40;;;-3.90;68.50;;;;;;6254610;28;20238;-79
2024/01/21 02:22:31;;;;;;;15.90;11.83;;;-3.80;68.60;;;;;;6264915;28;20245;-77
2024/01/21 02:25:36;;;;;;;14.07;11.63;;;-3.90;68.40;;;;;;6258813;28;20839;-80
2024/01/21 02:28:39;;;;;;;13.10;10.87;;;-3.90;68.20;;;;;;6257893;28;20316;-78
2024/01/21 02:31:45;;;;;;;14.80;10.83;;;-3.90;68.20;;;;;;6260627;28;20635;-76
2024/01/21 02:34:48;;;;;;;13.83;11.47;;;-4.10;68.20;;;;;;6243200;28;20316;-77
2024/01/21 02:37:51;;;;;;;12.00;10.87;;;-4.00;68.10;;;;;;6245984;28;20241;-79
2024/01/21 02:40:56;;;;;;;13.83;11.07;;;-4.10;67.90;;;;;;6252866;28;20230;-78
2024/01/21 02:44:00;;;;;;;12.10;10.50;;;-4.10;68.20;;;;;;6245130;28;20245;-79
2024/01/21 02:47:04;;;;;;;12.10;10.90;;;-4.00;68.10;;;;;;6258202;28;20321;-77
2024/01/21 02:50:07;;;;;;;12.40;10.97;;;-4.00;67.80;;;;;;6247397;28;20236;-77
2024/01/21 02:53:11;;;;;;;15.40;10.90;;;-4.00;67.90;;;;;;6256969;28;20227;-78
2024/01/21 02:56:22;;;;;;;12.80;11.33;;;-4.00;67.50;;;;;;6267867;28;20230;-78
2024/01/21 02:59:25;;;;;;;12.50;10.67;;;-3.90;67.20;;;;;;6254664;28;20247;-80
2024/01/21 03:02:29;;;;;;;12.27;10.57;;;-3.90;67.20;;;;;;6249159;28;20322;-77
2024/01/21 03:05:32;;;;;;;13.37;10.60;;;-4.00;66.70;;;;;;6259203;28;20779;-79
2024/01/21 03:08:35;;;;;;;12.70;10.43;;;-4.10;66.80;;;;;;6260347;28;20305;-76
2024/01/21 03:11:41;;;;;;;12.10;10.73;;;-4.00;66.90;;;;;;6246585;28;20253;-79
2024/01/21 03:14:44;;;;;;;14.50;10.30;;;-4.00;66.70;;;;;;6251224;28;20258;-78
2024/01/21 03:17:48;;;;;;;12.00;10.73;;;-4.10;66.50;;;;;;6254278;28;20372;-77
2024/01/21 03:20:51;;;;;;;12.40;10.23;;;-4.00;66.40;;;;;;6263616;28;20272;-78
2024/01/21 03:23:55;;;;;;;14.80;10.47;;;-4.00;66.40;;;;;;6264396;28;20245;-78
2024/01/21 03:27:00;;;;;;;15.87;10.90;;;-4.10;66.50;;;;;;6270027;28;20233;-78
2024/01/21 03:30:03;;;;;;;12.03;10.83;;;-4.00;66.50;;;;;;6248470;28;20276;-79
2024/01/21 03:33:06;;;;;;;16.60;11.37;;;-4.00;66.50;;;;;;6263519;28;20330;-78
2024/01/21 03:36:11;;;;;;;12.83;10.30;;;-4.00;66.10;;;;;;6270867;28;20242;-76
2024/01/21 03:39:15;;;;;;;13.70;11.10;;;-4.00;65.80;;;;;;6276128;28;20226;-78
2024/01/21 03:42:19;;;;;;;11.70;10.50;;;-4.00;66.10;;;;;;6259617;28;20234;-77
2024/01/21 03:45:23;;;;;;;11.33;10.23;;;-4.00;65.60;;;;;;6263929;28;20319;-79
2024/01/21 03:48:26;;;;;;;10.67;9.77;;;-4.00;65.80;;;;;;6258013;28;20245;-77
2024/01/21 03:51:29;;;;;;;11.53;10.43;;;-4.00;65.60;;;;;;6271293;28;20230;-79
2024/01/21 03:54:32;;;;;;;10.47;9.50;;;-4.00;65.50;;;;;;6264976;28;20238;-77
2024/01/21 03:57:37;;;;;;;11.50;10.40;;;-4.10;65.60;;;;;;6255654;28;20249;-76
2024/01/21 04:00:40;;;;;;;13.90;11.07;;;-4.10;65.70;;;;;;6261547;28;20307;-78
2024/01/21 04:03:43;;;;;;;10.87;9.87;;;-4.20;65.80;;;;;;6259753;28;20234;-80
2024/01/21 04:06:47;;;;;;;12.20;10.00;;;-4.10;65.30;;;;;;6263333;28;20329;-79
2024/01/21 04:09:50;;;;;;;11.50;10.33;;;-4.00;65.00;;;;;;6268849;28;20248;-77
2024/01/21 04:12:54;;;;;;;11.70;10.50;;;-4.00;64.90;;;;;;6261563;28;20323;-79
2024/01/21 04:15:58;;;;;;;11.60;10.33;;;-4.00;64.60;;;;;;6251011;28;20249;-78
2024/01/21 04:19:01;;;;;;;11.30;10.20;;;-4.10;64.70;;;;;;6260710;28;20230;-77
2024/01/21 04:22:05;;;;;;;12.83;11.00;;;-4.10;64.50;;;;;;6260478;28;20795;-77
2024/01/21 04:25:09;;;;;;;14.63;10.60;;;-4.00;65.00;;;;;;6258661;28;20247;-77
2024/01/21 04:28:13;;;;;;;12.73;10.83;;;-4.00;64.40;;;;;;6249458;28;20242;-78
2024/01/21 04:31:18;;;;;;;12.97;10.73;;;-4.00;64.30;;;;;;6258583;28;20321;-78
2024/01/21 04:34:21;;;;;;;12.53;11.13;;;-4.00;64.00;;;;;;6256776;28;20880;-78
2024/01/21 04:37:24;;;;;;;13.13;11.07;;;-4.00;63.90;;;;;;6256625;28;20258;-80
2024/01/21 04:40:29;;;;;;;13.63;10.73;;;-3.80;63.70;;;;;;6253735;28;20231;-77
2024/01/21 04:43:33;;;;;;;11.90;10.60;;;-3.80;63.50;;;;;;6256741;28;20877;-78
2024/01/21 04:46:37;;;;;;;11.23;10.20;;;-3.70;63.70;;;;;;6257237;28;20808;-77
2024/01/21 04:49:40;;;;;;;12.93;11.63;;;-3.60;63.50;;;;;;6263973;28;20226;-80
2024/01/21 04:52:43;;;;;;;10.50;9.47;;;-3.60;63.70;;;;;;6269595;28;20229;-78
2024/01/21 04:55:47;;;;;;;11.60;10.30;;;-3.60;63.20;;;;;;6263186;28;20258;-81
2024/01/21 04:58:51;;;;;;;12.77;10.67;;;-3.70;63.70;;;;;;6261571;28;20236;-81
2024/01/21 05:01:58;;;;;;;13.23;10.60;;;-3.70;63.70;;;;;;6257646;28;20238;-79
2024/01/21 05:05:01;;;;;;;10.60;9.50;;;-3.70;63.70;;;;;;6265004;28;20722;-80
2024/01/21 05:08:05;;;;;;;10.67;9.63;;;-3.80;63.70;;;;;;6258121;28;20238;-81
2024/01/21 05:11:08;;;;;;;11.80;10.60;;;-3.80;63.80;;;;;;6245710;28;20247;-80
2024/01/21 05:14:13;;;;;;;12.57;11.37;;;-3.80;63.80;;;;;;6262309;28;20230;-80
2024/01/21 05:17:16;;;;;;;12.00;10.47;;;-3.80;63.70;;;;;;6256024;28;20238;-78
2024/01/21 05:20:19;;;;;;;12.90;11.00;;;-3.80;63.30;;;;;;6239858;28;20243;-78
2024/01/21 05:23:22;;;;;;;11.80;10.60;;;-3.80;63.50;;;;;;6251393;28;20291;-81
2024/01/21 05:26:26;;;;;;;11.50;10.30;;;-3.60;63.30;;;;;;6243787;28;20229;-79
2024/01/21 05:29:30;;;;;;;12.60;10.77;;;-3.60;62.80;;;;;;6249036;28;20230;-80
2024/01/21 05:32:37;;;;;;;11.33;10.23;;;-3.60;62.80;;;;;;6249537;28;20243;-80
2024/01/21 05:35:40;;;;;;;12.53;11.27;;;-3.60;62.80;;;;;;6251158;28;20349;-81
2024/01/21 05:38:43;;;;;;;12.97;11.57;;;-3.60;63.00;;;;;;6251072;28;20320;-80
2024/01/21 05:42:02;;;;;;;12.87;10.97;;;-3.60;62.90;;;;;;6250596;28;20242;-80
2024/01/21 05:45:08;;;;;;;11.83;10.47;;;-3.50;62.80;;;;;;6233886;28;20726;-80
2024/01/21 05:48:12;;;;;;;11.10;9.80;;;-3.50;62.60;;;;;;6217176;28;20723;-79
2024/01/21 05:51:15;;;;;;;11.47;9.77;;;-3.50;62.30;;;;;;6226938;28;20236;-80
2024/01/21 05:54:19;;;;;;;10.70;9.70;;;-3.50;62.00;;;;;;6222490;28;20238;-79
2024/01/21 05:57:23;;;;;;;9.93;8.93;;;-3.50;62.00;;;;;;6225502;28;20241;-78
2024/01/21 06:00:27;;;;;;;11.60;10.50;;;-3.50;61.80;;;;;;6222795;28;20245;-80
2024/01/21 06:03:31;;;;;;;11.77;10.43;;;-3.40;61.80;;;;;;6233713;28;20341;-81
2024/01/21 06:06:35;;;;;;;12.73;10.13;;;-3.50;61.80;;;;;;6234315;28;20234;-81
2024/01/21 06:09:39;;;;;;;16.63;10.27;;;-3.60;61.60;;;;;;6231886;28;20243;-82
2024/01/21 06:12:42;;;;;;;12.23;10.57;;;-3.60;62.00;;;;;;6235551;28;20223;-78
2024/01/21 06:15:47;;;;;;;13.40;10.07;;;-3.40;61.90;;;;;;6231860;28;20246;-81
2024/01/21 06:18:51;;;;;;;11.10;9.93;;;-3.40;62.10;;;;;;6220445;28;20710;-81
2024/01/21 06:21:54;;;;;;;12.10;10.00;;;-3.40;62.30;;;;;;6229407;28;20250;-81
2024/01/21 06:24:58;;;;;;;10.83;9.73;;;-3.30;62.00;;;;;;6228284;28;20257;-81
2024/01/21 06:28:01;;;;;;;10.97;9.83;;;-3.20;62.00;;;;;;6227402;28;20356;-78
2024/01/21 06:31:06;;;;;;;11.13;10.00;;;-3.20;62.20;;;;;;6219536;28;20245;-77
2024/01/21 06:34:09;;;;;;;11.80;9.03;;;-3.20;62.00;;;;;;6217200;28;20308;-78
2024/01/21 06:37:13;;;;;;;10.23;9.23;;;-3.10;61.90;;;;;;6215548;28;20281;-78
2024/01/21 06:40:16;;;;;;;10.50;9.60;;;-3.10;62.00;;;;;;6216057;28;20261;-78
2024/01/21 06:43:20;;;;;;;11.03;9.23;;;-3.10;61.90;;;;;;6212837;28;20249;-79
2024/01/21 06:46:24;;;;;;;10.17;9.17;;;-3.20;62.20;;;;;;6215551;28;20249;-80
2024/01/21 06:49:27;;;;;;;9.87;8.97;;;-3.20;61.80;;;;;;6215135;28;20834;-76
2024/01/21 06:52:32;;;;;;;10.57;9.60;;;-3.10;62.00;;;;;;6204766;28;20299;-77
2024/01/21 06:55:36;;;;;;;11.00;9.90;;;-3.10;62.20;;;;;;6209234;28;20297;-80
2024/01/21 06:58:39;;;;;;;9.90;9.00;;;-3.20;61.90;;;;;;6205360;28;20287;-80
2024/01/21 07:01:43;;;;;;;10.50;9.43;;;-3.10;62.10;;;;;;6217248;28;20325;-77
2024/01/21 07:04:46;;;;;;;11.43;10.23;;;-3.10;61.60;;;;;;6216175;28;20303;-76
2024/01/21 07:07:49;;;;;;;11.90;9.60;;;-3.10;62.10;;;;;;6209556;28;20874;-79
2024/01/21 07:10:52;;;;;;;13.20;10.00;;;-3.10;62.00;;;;;;6218299;28;20271;-79
2024/01/21 07:13:56;;;;;;;13.77;9.70;;;-3.00;61.90;;;;;;6215483;28;20251;-80
2024/01/21 07:17:00;;;;;;;10.27;9.37;;;-3.00;62.20;;;;;;6218359;28;20862;-78
2024/01/21 07:20:03;;;;;;;10.30;9.20;;;-3.00;62.20;;;;;;6216358;28;20269;-76
2024/01/21 07:23:07;;;;;;;12.33;10.53;;;-3.00;62.40;;;;;;6216757;28;20242;-78
2024/01/21 07:26:10;;;;;;;11.23;10.07;;;-2.90;62.00;;;;;;6216844;28;20702;-79
2024/01/21 07:29:13;;;;;;;11.63;9.77;;;-2.80;61.70;;;;;;6219622;28;20239;-76
2024/01/21 07:32:17;;;;;;;13.30;10.37;;;-2.80;61.10;;;;;;6216135;28;20320;-78
2024/01/21 07:35:20;;;;;;;10.67;9.73;;;-2.90;61.40;;;;;;6215929;28;20301;-77
2024/01/21 07:38:23;;;;;;;10.60;8.70;;;-2.90;61.30;;;;;;6219621;28;20891;-77
2024/01/21 07:41:26;;;;;;;9.80;8.90;;;-2.80;60.70;;;;;;6216672;28;20846;-77
2024/01/21 07:44:29;;;;;;;9.60;8.73;;;-2.80;60.80;;;;;;6220630;28;20247;-78
2024/01/21 07:47:34;;;;;;;12.77;9.97;;;-2.80;60.70;;;;;;6217953;28;20389;-76
2024/01/21 07:50:37;;;;;;;9.67;8.77;;;-2.70;60.70;;;;;;6239846;28;20238;-78
2024/01/21 07:53:40;;;;;;;10.47;9.47;;;-2.70;60.50;;;;;;6242547;28;20222;-77
2024/01/21 07:56:43;;;;;;;10.43;9.53;;;-2.70;60.40;;;;;;6245912;28;20286;-79
2024/01/21 07:59:46;;;;;;;10.13;9.23;;;-2.60;60.70;;;;;;6242530;28;20238;-78
2024/01/21 08:02:50;;;;;;;9.73;8.90;;;-2.50;60.20;;;;;;6244348;28;20234;-79
2024/01/21 08:05:54;;;;;;;10.67;9.60;;;-2.40;59.80;;;;;;6266776;28;20248;-78
2024/01/21 08:08:57;;;;;;;11.10;9.53;;;-2.40;59.40;;;;;;6269644;28;20263;-80
2024/01/21 08:12:00;;;;;;;9.97;8.97;;;-2.40;59.80;;;;;;6268699;28;20240;-79
2024/01/21 08:15:04;;;;;;;11.37;10.13;;;-2.30;59.80;;;;;;6257791;28;20741;-77
2024/01/21 08:18:09;;;;;;;11.20;10.30;;;-2.20;59.40;;;;;;6263167;28;20234;-76
2024/01/21 08:21:13;;;;;;;10.63;9.70;;;-2.20;59.50;;;;;;6267789;28;20355;-79
2024/01/21 08:24:16;;;;;;;11.63;10.53;;;-2.20;59.10;;;;;;6267899;28;20327;-81
2024/01/21 08:27:19;;;;;;;11.40;10.30;;;-2.10;58.80;;;;;;6270046;28;20623;-79
2024/01/21 08:30:22;;;;;;;11.20;9.50;;;-2.10;58.50;;;;;;6266913;28;20277;-77
2024/01/21 08:33:27;;;;;;;9.83;9.03;;;-1.90;58.00;;;;;;6268987;28;20241;-77
2024/01/21 08:36:30;;;;;;;9.97;9.07;;;-1.80;57.60;;;;;;6268572;28;20871;-79
2024/01/21 08:39:33;;;;;;;10.50;9.43;;;-1.80;57.20;;;;;;6272372;28;20256;-76
2024/01/21 08:42:39;;;;;;;9.13;8.40;;;-1.70;57.30;;;;;;6246281;28;20244;-79
2024/01/21 08:45:42;;;;;;;8.57;7.87;;;-1.60;57.10;;;;;;6265008;28;21418;-78
2024/01/21 08:48:46;;;;;;;8.97;8.20;;;-1.50;55.90;;;;;;6271422;28;20625;-78
2024/01/21 08:51:49;;;;;;;8.90;8.20;;;-1.50;56.40;;;;;;6263935;28;20282;-82
2024/01/21 08:54:53;;;;;;;9.27;8.40;;;-1.30;56.10;;;;;;6272584;28;20240;-79
2024/01/21 08:57:56;;;;;;;8.70;7.97;;;-1.30;55.40;;;;;;6267892;28;20241;-76
2024/01/21 09:01:00;;;;;;;9.80;8.80;;;-1.30;55.30;;;;;;6266838;28;20252;-77
2024/01/21 09:04:05;;;;;;;9.07;8.23;;;-1.30;55.50;;;;;;6270905;28;20617;-80
2024/01/21 09:07:08;;;;;;;9.03;8.13;;;-1.10;54.80;;;;;;6267999;28;20234;-78
2024/01/21 09:10:12;;;;;;;8.70;7.97;;;-1.10;54.40;;;;;;6269154;28;20238;-79
2024/01/21 09:13:16;;;;;;;8.40;7.70;;;-1.10;54.20;;;;;;6268634;28;20254;-80
2024/01/21 09:16:19;;;;;;;8.57;7.77;;;-1.00;53.70;;;;;;6260964;28;20387;-75
2024/01/21 09:19:24;;;;;;;7.77;7.23;;;-0.90;53.40;;;;;;6270514;28;20717;-77
2024/01/21 09:22:27;;;;;;;6.93;6.33;;;-0.90;52.20;;;;;;6268979;28;20235;-78
2024/01/21 09:25:30;;;;;;;7.83;7.20;;;-0.70;52.50;;;;;;6265318;28;20254;-80
2024/01/21 09:28:35;;;;;;;7.40;6.80;;;-0.60;51.40;;;;;;6265756;28;20237;-79
2024/01/21 09:31:38;;;;;;;7.97;7.23;;;-0.70;51.50;;;;;;6268908;28;20241;-79
2024/01/21 09:34:43;;;;;;;8.63;7.93;;;-0.70;51.70;;;;;;6265487;28;20880;-77
2024/01/21 09:37:46;;;;;;;9.07;7.40;;;-0.70;51.70;;;;;;6268602;28;20241;-78
2024/01/21 09:40:57;;;;;;;8.13;7.33;;;-0.60;51.50;;;;;;6255498;28;20327;-79
2024/01/21 09:44:01;;;;;;;7.70;7.00;;;-0.70;51.50;;;;;;6215942;28;20290;-78
2024/01/21 09:47:05;;;;;;;8.53;7.73;;;-0.60;51.50;;;;;;6216478;28;20624;-78
2024/01/21 09:50:12;;;;;;;7.87;7.13;;;-0.50;50.90;;;;;;6215605;28;20239;-77
2024/01/21 09:53:16;;;;;;;7.80;7.20;;;-0.50;50.70;;;;;;6218596;28;20238;-78
2024/01/21 09:56:19;;;;;;;11.10;8.33;;;-0.50;50.70;;;;;;6217896;28;20262;-79
2024/01/21 09:59:23;;;;;;;8.37;7.23;;;-0.50;51.10;;;;;;6216212;28;20314;-78
2024/01/21 10:02:26;;;;;;;8.00;7.40;;;-0.60;51.10;;;;;;6217503;28;20611;-78
2024/01/21 10:05:31;;;;;;;8.00;7.30;;;-0.60;50.30;;;;;;6219507;28;20352;-79
2024/01/21 10:08:37;;;;;;;7.93;7.23;;;-0.60;50.90;;;;;;6187352;28;20269;-78
2024/01/21 10:11:41;;;;;;;7.90;7.27;;;-0.50;50.60;;;;;;6234410;28;20234;-77
2024/01/21 10:14:44;;;;;;;7.50;6.90;;;-0.30;50.70;;;;;;6231428;28;20242;-80
2024/01/21 10:17:47;;;;;;;11.47;7.87;;;-0.20;50.80;;;;;;6229248;28;20258;-78
2024/01/21 10:20:52;;;;;;;8.77;7.53;;;-0.20;51.20;;;;;;6230412;28;20741;-78
2024/01/21 10:23:55;;;;;;;8.00;7.20;;;-0.20;50.90;;;;;;6230652;28;20318;-78
2024/01/21 10:26:58;;;;;;;8.20;7.50;;;-0.20;50.60;;;;;;6229674;28;20317;-77
2024/01/21 10:30:03;;;;;;;8.13;7.40;;;-0.10;50.90;;;;;;6230282;28;20246;-77
2024/01/21 10:33:06;;;;;;;7.70;7.07;;;0.00;50.60;;;;;;6230806;28;20246;-77
2024/01/21 10:36:12;;;;;;;7.03;6.47;;;0.00;50.50;;;;;;6224088;28;20244;-77
2024/01/21 10:39:20;;;;;;;7.43;6.77;;;0.00;50.50;;;;;;6230035;28;20704;-78
2024/01/21 10:42:23;;;;;;;7.07;6.67;;;0.20;50.10;;;;;;6229354;28;20231;-76
2024/01/21 10:45:27;;;;;;;6.90;6.30;;;0.30;49.20;;;;;;6228004;28;20241;-78
2024/01/21 10:48:31;;;;;;;6.60;6.10;;;0.30;48.90;;;;;;6230301;28;21361;-79
2024/01/21 10:51:36;;;;;;;6.87;6.20;;;0.40;49.10;;;;;;6229702;28;20325;-78
2024/01/21 10:54:39;;;;;;;6.57;6.17;;;0.30;47.80;;;;;;6219371;28;21490;-77
2024/01/21 10:57:43;;;;;;;7.13;6.43;;;0.30;48.40;;;;;;6233791;28;20234;-78
2024/01/21 11:00:47;;;;;;;7.13;6.63;;;0.30;48.20;;;;;;6227730;28;20753;-76
2024/01/21 11:03:55;;;;;;;6.97;6.27;;;0.40;48.80;;;;;;6222910;28;20233;-79
2024/01/21 11:07:03;;;;;;;8.20;7.47;;;0.30;49.10;;;;;;6217219;28;20723;-79
2024/01/21 11:10:07;;;;;;;6.83;6.40;;;0.40;49.20;;;;;;6215931;28;20889;-76
2024/01/21 11:13:38;;;;;;;7.93;7.10;;;0.50;48.70;;;;;;6216783;28;20235;-77
2024/01/21 11:16:43;;;;;;;7.90;7.30;;;0.60;48.70;;;;;;6227855;28;20253;-77
2024/01/21 11:19:52;;;;;;;7.87;7.23;;;0.60;49.10;;;;;;6229967;28;20261;-78
2024/01/21 11:23:00;;;;;;;7.70;7.10;;;0.70;48.80;;;;;;6225330;28;20242;-78
2024/01/21 11:26:06;;;;;;;7.90;7.20;;;0.60;48.30;;;;;;6214771;28;20238;-78
2024/01/21 11:29:23;;;;;;;7.60;6.87;;;0.50;49.20;;;;;;6225989;28;20830;-78
2024/01/21 11:32:28;;;;;;;7.60;6.87;;;0.60;49.00;;;;;;6231196;28;20308;-76
2024/01/21 11:35:32;;;;;;;7.47;6.87;;;0.80;48.20;;;;;;6229909;28;20242;-78
2024/01/21 11:38:37;;;;;;;7.07;6.60;;;0.90;47.40;;;;;;6228545;28;20491;-79
2024/01/21 11:41:41;;;;;;;7.23;6.63;;;1.00;47.20;;;;;;6233704;28;20243;-78
2024/01/21 11:44:44;;;;;;;6.60;6.30;;;1.00;47.70;;;;;;6232496;28;20813;-78
2024/01/21 11:47:48;;;;;;;7.37;6.87;;;1.40;46.60;;;;;;6233906;28;20428;-77
2024/01/21 11:50:51;;;;;;;7.93;7.00;;;1.50;46.20;;;;;;6232800;28;20844;-77
2024/01/21 11:53:56;;;;;;;6.57;6.17;;;1.50;46.60;;;;;;6229233;28;20674;-77
2024/01/21 11:56:59;;;;;;;8.50;7.43;;;1.60;45.50;;;;;;6211743;28;20235;-76
2024/01/21 12:00:03;;;;;;;7.50;6.83;;;1.70;45.60;;;;;;6214971;28;21037;-77
2024/01/21 12:03:06;;;;;;;7.60;6.93;;;1.50;46.00;;;;;;6234567;28;20242;-75
2024/01/21 12:06:11;;;;;;;7.10;6.60;;;1.70;46.40;;;;;;6232309;28;20238;-74
2024/01/21 12:09:16;;;;;;;6.80;6.33;;;1.60;45.60;;;;;;6233183;28;20246;-77
2024/01/21 12:12:20;;;;;;;6.93;6.43;;;1.80;45.70;;;;;;6231280;28;20231;-78
2024/01/21 12:15:23;;;;;;;7.57;6.87;;;1.90;45.00;;;;;;6234785;28;20243;-76
2024/01/21 12:18:26;;;;;;;8.77;7.47;;;2.10;44.80;;;;;;6235387;28;20249;-78
2024/01/21 12:21:30;;;;;;;7.87;7.20;;;2.10;44.90;;;;;;6231160;28;20626;-79
2024/01/21 12:24:40;;;;;;;11.47;7.40;;;2.10;45.50;;;;;;6232138;28;20242;-77
2024/01/21 12:27:45;;;;;;;7.30;6.60;;;1.90;45.50;;;;;;6231747;28;20239;-77
2024/01/21 12:30:48;;;;;;;7.27;6.57;;;1.90;45.60;;;;;;6232484;28;20324;-80
2024/01/21 12:33:52;;;;;;;6.90;6.50;;;1.90;45.30;;;;;;6234445;28;20235;-76
2024/01/21 12:36:56;;;;;;;7.40;6.80;;;1.90;46.50;;;;;;6230968;28;20334;-78
2024/01/21 12:40:01;;;;;;;7.37;6.97;;;1.90;45.70;;;;;;6245892;28;20241;-77
2024/01/21 12:43:04;;;;;;;8.20;7.50;;;1.90;46.20;;;;;;6232866;28;20235;-80
2024/01/21 12:46:07;;;;;;;7.70;7.10;;;1.80;46.00;;;;;;6230800;28;20329;-77
2024/01/21 12:49:12;;;;;;;8.33;7.53;;;1.90;46.00;;;;;;6242486;28;20234;-76
2024/01/21 12:52:15;;;;;;;8.77;8.07;;;1.80;46.30;;;;;;6244071;28;20237;-77
2024/01/21 12:55:20;;;;;;;7.80;7.10;;;1.80;46.30;;;;;;6230130;28;20265;-78
2024/01/21 12:58:23;;;;;;;7.43;6.77;;;1.90;46.50;;;;;;6247258;28;20233;-79
2024/01/21 13:01:27;;;;;;;7.57;7.07;;;2.00;45.60;;;;;;6238194;28;20254;-79
2024/01/21 13:04:31;;;;;;;8.00;7.20;;;2.10;46.10;;;;;;6232481;28;20254;-79
2024/01/21 13:07:34;;;;;;;7.33;6.73;;;2.10;45.80;;;;;;6230244;28;20245;-80
2024/01/21 13:10:39;;;;;;;7.23;6.63;;;2.10;44.60;;;;;;6230717;28;20374;-78
2024/01/21 13:13:42;;;;;;;7.83;7.17;;;2.10;45.40;;;;;;6230880;28;20925;-78
2024/01/21 13:16:45;;;;;;;7.20;6.50;;;2.10;45.60;;;;;;6231075;28;20452;-77
2024/01/21 13:19:48;;;;;;;7.27;6.57;;;2.10;44.80;;;;;;6229810;28;20323;-77
2024/01/21 13:22:52;;;;;;;6.43;6.03;;;2.20;45.40;;;;;;6231970;28;20647;-77
2024/01/21 13:25:57;;;;;;;6.20;5.80;;;2.30;44.80;;;;;;6230794;28;20750;-77
2024/01/21 13:32:21;;;;;;;5.73;5.23;;;2.30;44.40;;;;;;6230815;28;20325;-76
2024/01/21 13:35:24;;;;;;;7.30;6.60;;;2.30;43.40;;;;;;6230633;28;20381;-79
2024/01/21 13:38:30;;;;;;;6.70;6.20;;;2.30;43.90;;;;;;6229462;28;20321;-79
2024/01/21 13:41:35;;;;;;;5.83;5.57;;;2.50;43.10;;;;;;6231878;28;20242;-78
2024/01/21 13:44:38;;;;;;;5.17;4.97;;;2.50;43.60;;;;;;6230181;28;20254;-77
2024/01/21 13:47:41;;;;;;;5.73;5.43;;;2.60;43.40;;;;;;6231766;28;20241;-80
2024/01/21 13:50:44;;;;;;;5.80;5.50;;;2.60;43.60;;;;;;6228667;28;20239;-77
2024/01/21 13:53:49;;;;;;;5.97;5.57;;;2.70;43.00;;;;;;6225299;28;20345;-78
2024/01/21 13:56:54;;;;;;;5.30;5.00;;;2.60;42.90;;;;;;6231308;28;20230;-78
2024/01/21 13:59:57;;;;;;;5.93;5.43;;;2.60;43.20;;;;;;6212059;28;20563;-78
2024/01/21 14:03:02;;;;;;;5.57;5.30;;;2.50;43.60;;;;;;6217860;28;20328;-77
2024/01/21 14:06:05;;;;;;;5.93;5.50;;;2.60;43.60;;;;;;6217402;28;20251;-77
2024/01/21 14:09:09;;;;;;;5.47;5.17;;;2.60;44.10;;;;;;6219098;28;20237;-77
2024/01/21 14:12:15;;;;;;;6.27;5.90;;;2.50;44.00;;;;;;6217663;28;20269;-77
2024/01/21 14:15:18;;;;;;;5.87;5.57;;;2.50;44.10;;;;;;6207561;28;20337;-76
2024/01/21 14:18:23;;;;;;;6.20;5.83;;;2.50;44.50;;;;;;6219538;28;20242;-77
2024/01/21 14:21:27;;;;;;;5.90;5.53;;;2.50;44.80;;;;;;6217236;28;20257;-78
2024/01/21 14:24:31;;;;;;;8.13;6.80;;;2.50;45.20;;;;;;6220162;28;20235;-78
2024/01/21 14:27:36;;;;;;;7.87;6.80;;;2.50;44.70;;;;;;6218337;28;20871;-78
2024/01/21 14:30:39;;;;;;;6.70;6.20;;;2.50;44.70;;;;;;6216963;28;20254;-76
2024/01/21 14:33:42;;;;;;;5.90;5.53;;;2.50;45.60;;;;;;6218321;28;20602;-80
2024/01/21 14:36:46;;;;;;;6.27;5.97;;;2.50;45.50;;;;;;6219775;28;20246;-76
2024/01/21 14:39:49;;;;;;;6.60;6.10;;;2.50;45.70;;;;;;6219875;28;20608;-78
2024/01/21 14:42:54;;;;;;;5.80;5.50;;;2.40;45.90;;;;;;6216904;28;20249;-79
2024/01/21 14:45:57;;;;;;;6.23;5.83;;;2.30;46.20;;;;;;6229156;28;20273;-80
2024/01/21 14:49:00;;;;;;;6.13;5.73;;;2.20;45.90;;;;;;6230188;28;20230;-77
2024/01/21 14:52:04;;;;;;;6.67;6.20;;;2.20;46.40;;;;;;6229075;28;20243;-79
2024/01/21 14:55:09;;;;;;;7.47;6.97;;;2.20;46.80;;;;;;6233554;28;20744;-78
2024/01/21 14:58:14;;;;;;;8.00;6.47;;;2.10;46.80;;;;;;6228074;28;20289;-79
2024/01/21 15:01:18;;;;;;;7.40;6.83;;;2.10;47.50;;;;;;6229341;28;20239;-77
2024/01/21 15:04:21;;;;;;;6.30;5.80;;;2.00;47.40;;;;;;6229946;28;20239;-76
2024/01/21 15:07:25;;;;;;;6.03;5.63;;;2.00;47.70;;;;;;6230587;28;20955;-78
2024/01/21 15:10:28;;;;;;;6.57;6.07;;;2.00;47.30;;;;;;6226766;28;21499;-78
2024/01/21 15:13:35;;;;;;;8.53;7.63;;;1.90;47.90;;;;;;6231771;28;20299;-80
2024/01/21 15:16:38;;;;;;;6.67;6.03;;;2.00;47.80;;;;;;6234650;28;20273;-76
2024/01/21 15:19:43;;;;;;;5.67;5.37;;;1.90;48.20;;;;;;6233958;28;20238;-77
2024/01/21 15:22:48;;;;;;;6.50;6.07;;;1.90;48.60;;;;;;6225544;28;20246;-80
2024/01/21 15:25:51;;;;;;;5.93;5.63;;;1.90;48.80;;;;;;6237390;28;20269;-79
2024/01/21 15:28:56;;;;;;;6.80;6.40;;;1.90;48.50;;;;;;6234206;28;20246;-78
2024/01/21 15:31:59;;;;;;;7.20;6.60;;;1.90;48.80;;;;;;6234914;28;20287;-79
2024/01/21 15:35:02;;;;;;;6.80;6.30;;;1.90;49.20;;;;;;6230864;28;20406;-80
2024/01/21 15:38:06;;;;;;;6.37;5.87;;;1.80;49.40;;;;;;6234706;28;20849;-80
2024/01/21 15:41:10;;;;;;;5.70;5.30;;;2.00;49.40;;;;;;6233009;28;20460;-80
2024/01/21 15:44:15;;;;;;;6.73;6.23;;;1.90;49.10;;;;;;6235219;28;20250;-81
2024/01/21 15:47:18;;;;;;;7.13;6.60;;;1.90;50.00;;;;;;6235367;28;20508;-80
2024/01/21 15:50:21;;;;;;;6.50;6.10;;;1.90;49.80;;;;;;6233923;28;20321;-80
2024/01/21 15:53:25;;;;;;;7.30;6.80;;;1.90;49.90;;;;;;6233026;28;20831;-80